createdAt,value
2016-07-23T00:00:20.629Z,1011.45
2016-07-23T00:01:20.616Z,1011.46
2016-07-23T00:02:20.603Z,1011.45
2016-07-23T00:03:20.589Z,1011.43
2016-07-23T00:04:20.571Z,1011.42
2016-07-23T00:05:20.560Z,1011.41
2016-07-23T00:06:20.545Z,1011.38
2016-07-23T00:07:20.530Z,1011.39
2016-07-23T00:08:20.519Z,1011.41
2016-07-23T00:09:20.501Z,1011.38
2016-07-23T00:10:20.487Z,1011.5
2016-07-23T00:11:20.473Z,1011.42
2016-07-23T00:12:20.457Z,1011.41
2016-07-23T00:13:20.441Z,1011.45
2016-07-23T00:14:20.432Z,1011.42
2016-07-23T00:15:20.410Z,1011.44
2016-07-23T00:16:20.396Z,1011.42
2016-07-23T00:17:20.385Z,1011.48
2016-07-23T00:18:20.372Z,1011.44
2016-07-23T00:19:20.352Z,1011.48
2016-07-23T00:20:20.339Z,1011.41
2016-07-23T00:21:20.325Z,1011.47
2016-07-23T00:22:20.308Z,1011.48
2016-07-23T00:23:20.293Z,1011.45
2016-07-23T00:24:20.279Z,1011.46
2016-07-23T00:25:20.266Z,1011.46
2016-07-23T00:26:20.249Z,1011.49
2016-07-23T00:27:20.236Z,1011.48
2016-07-23T00:28:20.219Z,1011.48
2016-07-23T00:29:20.207Z,1011.5
2016-07-23T00:30:20.195Z,1011.51
2016-07-23T00:31:20.175Z,1011.51
2016-07-23T00:32:20.162Z,1011.53
2016-07-23T00:33:20.146Z,1011.55
2016-07-23T00:34:20.133Z,1011.58
2016-07-23T00:35:20.118Z,1011.59
2016-07-23T00:36:20.107Z,1011.56
2016-07-23T00:37:20.088Z,1011.58
2016-07-23T00:38:20.078Z,1011.6
2016-07-23T00:39:20.057Z,1011.58
2016-07-23T00:40:20.044Z,1011.53
2016-07-23T00:41:20.028Z,1011.54
2016-07-23T00:42:20.018Z,1011.5
2016-07-23T00:43:19.999Z,1011.51
2016-07-23T00:44:19.983Z,1011.5
2016-07-23T00:45:19.970Z,1011.48
2016-07-23T00:46:19.955Z,1011.52
2016-07-23T00:47:19.942Z,1011.48
2016-07-23T00:48:19.929Z,1011.41
2016-07-23T00:49:19.914Z,1011.41
2016-07-23T00:50:19.897Z,1011.45
2016-07-23T00:51:19.883Z,1011.39
2016-07-23T00:52:19.869Z,1011.4
2016-07-23T00:53:19.851Z,1011.43
2016-07-23T00:54:19.840Z,1011.45
2016-07-23T00:55:19.820Z,1011.47
2016-07-23T00:56:19.809Z,1011.43
2016-07-23T00:57:19.794Z,1011.4
2016-07-23T00:58:19.780Z,1011.47
2016-07-23T00:59:19.762Z,1011.44
2016-07-23T01:00:19.752Z,1011.43
2016-07-23T01:01:19.739Z,1011.42
2016-07-23T01:02:19.720Z,1011.45
2016-07-23T01:03:19.705Z,1011.42
2016-07-23T01:04:19.689Z,1011.45
2016-07-23T01:05:19.674Z,1011.44
2016-07-23T01:06:19.659Z,1011.42
2016-07-23T01:07:19.645Z,1011.4
2016-07-23T01:08:19.631Z,1011.42
2016-07-23T01:09:19.620Z,1011.37
2016-07-23T01:10:19.599Z,1011.3
2016-07-23T01:11:19.588Z,1011.25
2016-07-23T01:12:19.569Z,1011.26
2016-07-23T01:13:19.557Z,1011.29
2016-07-23T01:14:19.540Z,1011.22
2016-07-23T01:15:19.526Z,1011.21
2016-07-23T01:16:19.510Z,1011.18
2016-07-23T01:17:19.496Z,1011.24
2016-07-23T01:18:19.483Z,1011.24
2016-07-23T01:19:19.466Z,1011.24
2016-07-23T01:20:19.450Z,1011.25
2016-07-23T01:21:19.436Z,1011.27
2016-07-23T01:22:19.423Z,1011.28
2016-07-23T01:23:19.409Z,1011.29
2016-07-23T01:24:19.398Z,1011.26
2016-07-23T01:25:19.378Z,1011.25
2016-07-23T01:26:19.361Z,1011.24
2016-07-23T01:27:19.346Z,1011.24
2016-07-23T01:28:19.332Z,1011.28
2016-07-23T01:29:19.320Z,1011.3
2016-07-23T01:30:19.304Z,1011.3
2016-07-23T01:31:19.287Z,1011.29
2016-07-23T01:32:19.272Z,1011.34
2016-07-23T01:33:19.259Z,1011.3
2016-07-23T01:34:19.243Z,1011.34
2016-07-23T01:35:19.226Z,1011.3
2016-07-23T01:36:19.213Z,1011.3
2016-07-23T01:37:19.200Z,1011.27
2016-07-23T01:38:19.184Z,1011.28
2016-07-23T01:39:19.167Z,1011.28
2016-07-23T01:40:19.155Z,1011.28
2016-07-23T01:41:19.139Z,1011.27
2016-07-23T01:42:19.121Z,1011.3
2016-07-23T01:43:19.107Z,1011.28
2016-07-23T01:44:19.092Z,1011.31
2016-07-23T01:45:19.081Z,1011.29
2016-07-23T01:46:19.062Z,1011.27
2016-07-23T01:47:19.050Z,1011.28
2016-07-23T01:48:19.034Z,1011.26
2016-07-23T01:49:19.017Z,1011.32
2016-07-23T01:50:19.094Z,1011.28
2016-07-23T01:51:18.988Z,1011.35
2016-07-23T01:52:18.974Z,1011.36
2016-07-23T01:53:18.957Z,1011.31
2016-07-23T01:54:18.943Z,1011.35
2016-07-23T01:55:18.930Z,1011.37
2016-07-23T01:56:18.915Z,1011.37
2016-07-23T01:57:18.902Z,1011.34
2016-07-23T01:58:18.884Z,1011.37
2016-07-23T01:59:18.868Z,1011.31
2016-07-23T02:00:18.854Z,1011.37
2016-07-23T02:01:18.839Z,1011.32
2016-07-23T02:02:18.824Z,1011.25
2016-07-23T02:03:18.809Z,1011.26
2016-07-23T02:04:18.795Z,1011.26
2016-07-23T02:05:18.778Z,1011.27
2016-07-23T02:06:18.762Z,1011.31
2016-07-23T02:07:18.749Z,1011.29
2016-07-23T02:08:18.735Z,1011.25
2016-07-23T02:09:18.719Z,1011.25
2016-07-23T02:10:18.704Z,1011.26
2016-07-23T02:11:18.686Z,1011.27
2016-07-23T02:12:18.670Z,1011.29
2016-07-23T02:13:18.656Z,1011.25
2016-07-23T02:14:18.645Z,1011.25
2016-07-23T02:15:18.628Z,1011.22
2016-07-23T02:16:18.614Z,1011.26
2016-07-23T02:17:18.611Z,1011.24
2016-07-23T02:18:18.585Z,1011.25
2016-07-23T02:19:18.569Z,1011.29
2016-07-23T02:20:18.556Z,1011.33
2016-07-23T02:21:18.538Z,1011.26
2016-07-23T02:22:18.532Z,1011.33
2016-07-23T02:23:18.507Z,1011.27
2016-07-23T02:24:18.497Z,1011.25
2016-07-23T02:25:18.475Z,1011.25
2016-07-23T02:26:18.466Z,1011.23
2016-07-23T02:27:18.446Z,1011.21
2016-07-23T02:28:18.436Z,1011.22
2016-07-23T02:29:18.417Z,1011.2
2016-07-23T02:30:18.404Z,1011.19
2016-07-23T02:31:18.385Z,1011.19
2016-07-23T02:32:18.371Z,1011.24
2016-07-23T02:33:18.359Z,1011.25
2016-07-23T02:34:18.345Z,1011.24
2016-07-23T02:35:18.324Z,1011.25
2016-07-23T02:36:18.317Z,1011.23
2016-07-23T02:37:18.296Z,1011.2
2016-07-23T02:38:18.284Z,1011.23
2016-07-23T02:39:18.265Z,1011.18
2016-07-23T02:40:18.250Z,1011.19
2016-07-23T02:41:18.234Z,1011.15
2016-07-23T02:42:18.217Z,1011.18
2016-07-23T02:43:18.206Z,1011.18
2016-07-23T02:44:18.193Z,1011.19
2016-07-23T02:45:18.173Z,1011.21
2016-07-23T02:46:18.160Z,1011.18
2016-07-23T02:47:18.145Z,1011.15
2016-07-23T02:48:18.130Z,1011.14
2016-07-23T02:49:18.113Z,1011.18
2016-07-23T02:50:18.099Z,1011.2
2016-07-23T02:51:18.084Z,1011.17
2016-07-23T02:52:18.070Z,1011.16
2016-07-23T02:53:18.054Z,1011.21
2016-07-23T02:54:18.039Z,1011.15
2016-07-23T02:55:18.023Z,1011.15
2016-07-23T02:56:18.012Z,1011.12
2016-07-23T02:57:17.990Z,1011.12
2016-07-23T02:58:17.975Z,1011.13
2016-07-23T02:59:17.962Z,1011.1
2016-07-23T03:00:17.945Z,1011.09
2016-07-23T03:01:17.931Z,1011.11
2016-07-23T03:02:17.921Z,1011.11
2016-07-23T03:03:17.901Z,1011.15
2016-07-23T03:04:17.886Z,1011.15
2016-07-23T03:05:17.873Z,1011.14
2016-07-23T03:06:17.856Z,1011.11
2016-07-23T03:07:17.841Z,1011.18
2016-07-23T03:08:17.830Z,1011.16
2016-07-23T03:09:17.811Z,1011.13
2016-07-23T03:10:17.795Z,1011.14
2016-07-23T03:11:17.779Z,1011.14
2016-07-23T03:12:17.767Z,1011.16
2016-07-23T03:13:17.751Z,1011.16
2016-07-23T03:14:17.734Z,1011.08
2016-07-23T03:15:17.717Z,1011.11
2016-07-23T03:16:17.701Z,1011.11
2016-07-23T03:17:17.691Z,1011.11
2016-07-23T03:18:17.673Z,1011.12
2016-07-23T03:19:17.656Z,1011.16
2016-07-23T03:20:17.642Z,1011.12
2016-07-23T03:21:17.626Z,1011.15
2016-07-23T03:22:17.606Z,1011.15
2016-07-23T03:23:17.595Z,1011.17
2016-07-23T03:24:17.580Z,1011.22
2016-07-23T03:25:17.568Z,1011.16
2016-07-23T03:26:17.547Z,1011.15
2016-07-23T03:27:17.536Z,1011.16
2016-07-23T03:28:17.519Z,1011.16
2016-07-23T03:29:17.502Z,1011.14
2016-07-23T03:30:17.487Z,1011.17
2016-07-23T03:31:17.478Z,1011.16
2016-07-23T03:32:17.456Z,1011.2
2016-07-23T03:33:17.447Z,1011.19
2016-07-23T03:34:17.428Z,1011.2
2016-07-23T03:35:17.413Z,1011.17
2016-07-23T03:36:17.395Z,1011.19
2016-07-23T03:37:17.380Z,1011.18
2016-07-23T03:38:17.366Z,1011.15
2016-07-23T03:39:17.352Z,1011.16
2016-07-23T03:40:17.336Z,1011.16
2016-07-23T03:41:17.321Z,1011.15
2016-07-23T03:42:17.306Z,1011.14
2016-07-23T03:43:17.290Z,1011.14
2016-07-23T03:44:17.275Z,1011.16
2016-07-23T03:45:17.263Z,1011.11
2016-07-23T03:46:17.243Z,1011.13
2016-07-23T03:47:17.230Z,1011.11
2016-07-23T03:48:17.215Z,1011.08
2016-07-23T03:49:17.198Z,1011.08
2016-07-23T03:50:17.182Z,1011.11
2016-07-23T03:51:17.174Z,1011.08
2016-07-23T03:52:17.154Z,1011.05
2016-07-23T03:53:17.136Z,1011.06
2016-07-23T03:54:17.124Z,1011.08
2016-07-23T03:55:17.106Z,1011.06
2016-07-23T03:56:17.092Z,1011.08
2016-07-23T03:57:17.076Z,1011.07
2016-07-23T03:58:17.063Z,1011.07
2016-07-23T03:59:17.046Z,1011.1
2016-07-23T04:00:17.032Z,1011.06
2016-07-23T04:01:17.017Z,1011.07
2016-07-23T04:02:16.998Z,1011.08
2016-07-23T04:03:16.985Z,1011.07
2016-07-23T04:04:16.971Z,1011.1
2016-07-23T04:05:16.954Z,1011.13
2016-07-23T04:06:16.940Z,1011.12
2016-07-23T04:07:16.926Z,1011.14
2016-07-23T04:08:16.911Z,1011.13
2016-07-23T04:09:16.894Z,1011.12
2016-07-23T04:10:16.879Z,1011.15
2016-07-23T04:11:16.863Z,1011.17
2016-07-23T04:12:16.848Z,1011.16
2016-07-23T04:13:16.838Z,1011.22
2016-07-23T04:14:16.826Z,1011.23
2016-07-23T04:15:16.800Z,1011.23
2016-07-23T04:16:16.785Z,1011.22
2016-07-23T04:17:16.770Z,1011.28
2016-07-23T04:18:16.758Z,1011.31
2016-07-23T04:19:16.740Z,1011.32
2016-07-23T04:20:16.728Z,1011.35
2016-07-23T04:21:16.711Z,1011.32
2016-07-23T04:22:16.696Z,1011.33
2016-07-23T04:23:16.680Z,1011.36
2016-07-23T04:24:16.667Z,1011.35
2016-07-23T04:25:16.652Z,1011.36
2016-07-23T04:26:16.637Z,1011.38
2016-07-23T04:27:16.620Z,1011.34
2016-07-23T04:28:16.605Z,1011.38
2016-07-23T04:29:16.589Z,1011.39
2016-07-23T04:30:16.574Z,1011.39
2016-07-23T04:31:16.556Z,1011.38
2016-07-23T04:32:16.544Z,1011.39
2016-07-23T04:33:16.528Z,1011.35
2016-07-23T04:34:16.517Z,1011.39
2016-07-23T04:35:16.496Z,1011.38
2016-07-23T04:36:16.481Z,1011.39
2016-07-23T04:37:16.471Z,1011.45
2016-07-23T04:38:16.452Z,1011.4
2016-07-23T04:39:16.440Z,1011.36
2016-07-23T04:40:16.419Z,1011.39
2016-07-23T04:41:16.405Z,1011.43
2016-07-23T04:42:16.395Z,1011.42
2016-07-23T04:43:16.375Z,1011.45
2016-07-23T04:44:16.359Z,1011.48
2016-07-23T04:45:16.349Z,1011.46
2016-07-23T04:46:16.328Z,1011.44
2016-07-23T04:47:16.315Z,1011.41
2016-07-23T04:48:16.298Z,1011.4
2016-07-23T04:49:16.285Z,1011.45
2016-07-23T04:50:16.266Z,1011.4
2016-07-23T04:51:16.250Z,1011.44
2016-07-23T04:52:16.238Z,1011.42
2016-07-23T04:53:16.224Z,1011.41
2016-07-23T04:54:16.208Z,1011.43
2016-07-23T04:55:16.196Z,1011.39
2016-07-23T04:56:16.175Z,1011.38
2016-07-23T04:57:16.162Z,1011.39
2016-07-23T04:58:16.146Z,1011.4
2016-07-23T04:59:16.133Z,1011.4
2016-07-23T05:00:16.115Z,1011.4
2016-07-23T05:01:16.103Z,1011.38
2016-07-23T05:02:16.087Z,1011.41
2016-07-23T05:03:16.070Z,1011.38
2016-07-23T05:04:16.054Z,1011.38
2016-07-23T05:05:16.043Z,1011.39
2016-07-23T05:06:16.026Z,1011.4
2016-07-23T05:07:16.012Z,1011.38
2016-07-23T05:08:15.996Z,1011.39
2016-07-23T05:09:15.984Z,1011.42
2016-07-23T05:10:15.963Z,1011.38
2016-07-23T05:11:15.952Z,1011.38
2016-07-23T05:12:15.934Z,1011.4
2016-07-23T05:13:15.926Z,1011.37
2016-07-23T05:14:15.906Z,1011.41
2016-07-23T05:15:15.887Z,1011.43
2016-07-23T05:16:15.874Z,1011.42
2016-07-23T05:17:15.863Z,1011.51
2016-07-23T05:18:15.843Z,1011.47
2016-07-23T05:19:15.833Z,1011.43
2016-07-23T05:20:15.815Z,1011.43
2016-07-23T05:21:15.800Z,1011.45
2016-07-23T05:22:15.784Z,1011.45
2016-07-23T05:23:15.774Z,1011.5
2016-07-23T05:24:15.754Z,1011.52
2016-07-23T05:25:15.745Z,1011.45
2016-07-23T05:26:15.726Z,1011.45
2016-07-23T05:27:15.715Z,1011.49
2016-07-23T05:28:15.699Z,1011.48
2016-07-23T05:29:15.680Z,1011.52
2016-07-23T05:30:15.665Z,1011.47
2016-07-23T05:31:15.655Z,1011.5
2016-07-23T05:32:15.635Z,1011.52
2016-07-23T05:33:15.624Z,1011.51
2016-07-23T05:34:15.605Z,1011.55
2016-07-23T05:35:15.593Z,1011.57
2016-07-23T05:36:15.578Z,1011.56
2016-07-23T05:37:15.559Z,1011.56
2016-07-23T05:38:15.543Z,1011.6
2016-07-23T05:39:15.536Z,1011.61
2016-07-23T05:40:15.516Z,1011.64
2016-07-23T05:41:15.502Z,1011.62
2016-07-23T05:42:15.486Z,1011.64
2016-07-23T05:43:15.474Z,1011.72
2016-07-23T05:44:15.458Z,1011.63
2016-07-23T05:45:15.442Z,1011.66
2016-07-23T05:46:15.426Z,1011.66
2016-07-23T05:47:15.417Z,1011.68
2016-07-23T05:48:15.398Z,1011.7
2016-07-23T05:49:15.388Z,1011.71
2016-07-23T05:50:15.369Z,1011.75
2016-07-23T05:51:15.354Z,1011.69
2016-07-23T05:52:15.338Z,1011.71
2016-07-23T05:53:15.323Z,1011.72
2016-07-23T05:54:15.307Z,1011.75
2016-07-23T05:55:15.295Z,1011.74
2016-07-23T05:56:15.280Z,1011.77
2016-07-23T05:57:15.264Z,1011.75
2016-07-23T05:58:15.252Z,1011.79
2016-07-23T05:59:15.236Z,1011.79
2016-07-23T06:00:15.219Z,1011.77
2016-07-23T06:01:15.207Z,1011.77
2016-07-23T06:02:15.194Z,1011.78
2016-07-23T06:03:15.176Z,1011.8
2016-07-23T06:04:15.162Z,1011.81
2016-07-23T06:05:15.149Z,1011.79
2016-07-23T06:06:15.132Z,1011.79
2016-07-23T06:07:15.117Z,1011.81
2016-07-23T06:08:15.102Z,1011.8
2016-07-23T06:09:15.087Z,1011.78
2016-07-23T06:10:15.073Z,1011.82
2016-07-23T06:11:15.059Z,1011.79
2016-07-23T06:12:15.044Z,1011.76
2016-07-23T06:13:15.033Z,1011.76
2016-07-23T06:14:15.016Z,1011.78
2016-07-23T06:15:15.001Z,1011.73
2016-07-23T06:16:14.995Z,1011.77
2016-07-23T06:17:14.968Z,1011.78
2016-07-23T06:18:14.959Z,1011.82
2016-07-23T06:19:14.940Z,1011.82
2016-07-23T06:20:14.927Z,1011.83
2016-07-23T06:21:14.913Z,1011.83
2016-07-23T06:22:14.896Z,1011.87
2016-07-23T06:23:14.881Z,1011.84
2016-07-23T06:24:14.866Z,1011.84
2016-07-23T06:25:14.852Z,1011.83
2016-07-23T06:26:14.837Z,1011.78
2016-07-23T06:27:14.823Z,1011.8
2016-07-23T06:28:14.809Z,1011.81
2016-07-23T06:29:14.792Z,1011.83
2016-07-23T06:30:14.780Z,1011.84
2016-07-23T06:31:14.762Z,1011.82
2016-07-23T06:32:14.749Z,1011.83
2016-07-23T06:33:14.734Z,1011.86
2016-07-23T06:34:14.727Z,1011.86
2016-07-23T06:35:14.705Z,1011.91
2016-07-23T06:36:14.694Z,1011.9
2016-07-23T06:37:14.674Z,1011.89
2016-07-23T06:38:14.667Z,1011.89
2016-07-23T06:39:14.654Z,1011.93
2016-07-23T06:40:14.630Z,1011.95
2016-07-23T06:41:14.617Z,1011.92
2016-07-23T06:42:14.603Z,1011.96
2016-07-23T06:43:14.593Z,1011.92
2016-07-23T06:44:14.575Z,1011.93
2016-07-23T06:45:14.559Z,1011.92
2016-07-23T06:46:14.543Z,1011.93
2016-07-23T06:47:14.528Z,1011.95
2016-07-23T06:48:14.514Z,1011.96
2016-07-23T06:49:14.502Z,1011.97
2016-07-23T06:50:14.490Z,1011.96
2016-07-23T06:51:14.471Z,1011.95
2016-07-23T06:52:14.455Z,1011.95
2016-07-23T06:53:14.441Z,1011.98
2016-07-23T06:54:14.430Z,1011.99
2016-07-23T06:55:14.412Z,1011.99
2016-07-23T06:56:14.399Z,1011.98
2016-07-23T06:57:14.381Z,1011.95
2016-07-23T06:58:14.368Z,1011.97
2016-07-23T06:59:14.353Z,1011.91
2016-07-23T07:00:14.339Z,1011.93
2016-07-23T07:01:14.325Z,1011.92
2016-07-23T07:02:14.310Z,1011.85
2016-07-23T07:03:14.297Z,1011.91
2016-07-23T07:04:14.279Z,1011.9
2016-07-23T07:05:14.265Z,1011.94
2016-07-23T07:06:14.251Z,1011.9
2016-07-23T07:07:14.236Z,1011.88
2016-07-23T07:08:14.222Z,1011.89
2016-07-23T07:09:14.208Z,1011.89
2016-07-23T07:10:14.194Z,1011.89
2016-07-23T07:11:14.182Z,1011.85
2016-07-23T07:12:14.162Z,1011.89
2016-07-23T07:13:14.150Z,1011.88
2016-07-23T07:14:14.137Z,1011.86
2016-07-23T07:15:14.121Z,1011.94
2016-07-23T07:16:14.106Z,1011.91
2016-07-23T07:17:14.101Z,1011.91
2016-07-23T07:18:14.077Z,1011.94
2016-07-23T07:19:14.067Z,1011.91
2016-07-23T07:20:14.048Z,1011.91
2016-07-23T07:21:14.036Z,1011.96
2016-07-23T07:22:14.018Z,1011.94
2016-07-23T07:23:14.004Z,1011.93
2016-07-23T07:24:13.988Z,1011.96
2016-07-23T07:25:13.975Z,1011.95
2016-07-23T07:26:13.962Z,1011.93
2016-07-23T07:27:13.946Z,1011.94
2016-07-23T07:28:13.932Z,1011.93
2016-07-23T07:29:13.916Z,1011.98
2016-07-23T07:30:13.899Z,1011.97
2016-07-23T07:31:13.890Z,1011.95
2016-07-23T07:32:13.874Z,1011.99
2016-07-23T07:33:13.860Z,1011.97
2016-07-23T07:34:13.843Z,1011.99
2016-07-23T07:35:13.833Z,1012.01
2016-07-23T07:36:13.818Z,1012.01
2016-07-23T07:37:13.805Z,1012.03
2016-07-23T07:38:13.787Z,1012.02
2016-07-23T07:39:13.774Z,1012.01
2016-07-23T07:40:13.757Z,1012.03
2016-07-23T07:41:13.743Z,1012.06
2016-07-23T07:42:13.730Z,1011.98
2016-07-23T07:43:13.722Z,1012
2016-07-23T07:44:13.700Z,1012.01
2016-07-23T07:45:13.686Z,1011.98
2016-07-23T07:46:13.673Z,1011.95
2016-07-23T07:47:13.658Z,1012.03
2016-07-23T07:48:13.643Z,1012.01
2016-07-23T07:49:13.634Z,1012
2016-07-23T07:50:13.615Z,1011.99
2016-07-23T07:51:13.600Z,1012.01
2016-07-23T07:52:13.583Z,1012
2016-07-23T07:53:13.568Z,1012.03
2016-07-23T07:54:13.559Z,1011.99
2016-07-23T07:55:13.541Z,1012
2016-07-23T07:56:13.527Z,1011.98
2016-07-23T07:57:13.512Z,1011.95
2016-07-23T07:58:13.499Z,1011.96
2016-07-23T07:59:13.484Z,1011.96
2016-07-23T08:00:13.469Z,1011.98
2016-07-23T08:01:13.456Z,1011.95
2016-07-23T08:02:13.438Z,1011.93
2016-07-23T08:03:13.426Z,1011.99
2016-07-23T08:04:13.412Z,1011.98
2016-07-23T08:05:13.395Z,1011.95
2016-07-23T08:06:13.386Z,1011.94
2016-07-23T08:07:13.418Z,1012
2016-07-23T08:08:13.352Z,1011.98
2016-07-23T08:09:13.338Z,1011.98
2016-07-23T08:10:13.326Z,1012
2016-07-23T08:11:13.308Z,1012.03
2016-07-23T08:12:13.293Z,1012.07
2016-07-23T08:13:13.280Z,1012.03
2016-07-23T08:14:13.269Z,1012.09
2016-07-23T08:15:13.251Z,1012.05
2016-07-23T08:16:13.236Z,1012.07
2016-07-23T08:17:13.220Z,1012.05
2016-07-23T08:18:13.222Z,1012.09
2016-07-23T08:19:13.196Z,1012.09
2016-07-23T08:20:13.178Z,1012.11
2016-07-23T08:21:13.165Z,1012.13
2016-07-23T08:22:13.150Z,1012.14
2016-07-23T08:23:13.137Z,1012.13
2016-07-23T08:24:13.123Z,1012.15
2016-07-23T08:25:13.106Z,1012.2
2016-07-23T08:26:13.093Z,1012.22
2016-07-23T08:27:13.079Z,1012.23
2016-07-23T08:28:13.064Z,1012.23
2016-07-23T08:29:13.051Z,1012.27
2016-07-23T08:30:13.030Z,1012.21
2016-07-23T08:31:13.026Z,1012.23
2016-07-23T08:32:13.006Z,1012.25
2016-07-23T08:33:12.993Z,1012.25
2016-07-23T08:34:12.977Z,1012.26
2016-07-23T08:35:12.960Z,1012.25
2016-07-23T08:36:12.954Z,1012.22
2016-07-23T08:37:12.929Z,1012.27
2016-07-23T08:38:12.920Z,1012.26
2016-07-23T08:39:12.904Z,1012.25
2016-07-23T08:40:12.889Z,1012.22
2016-07-23T08:41:12.875Z,1012.23
2016-07-23T08:42:12.861Z,1012.3
2016-07-23T08:43:12.847Z,1012.24
2016-07-23T08:44:12.831Z,1012.25
2016-07-23T08:45:12.819Z,1012.27
2016-07-23T08:46:12.811Z,1012.32
2016-07-23T08:47:12.789Z,1012.31
2016-07-23T08:48:12.774Z,1012.33
2016-07-23T08:49:12.769Z,1012.33
2016-07-23T08:50:12.748Z,1012.4
2016-07-23T08:51:12.732Z,1012.42
2016-07-23T08:52:12.717Z,1012.43
2016-07-23T08:53:12.704Z,1012.47
2016-07-23T08:54:12.689Z,1012.46
2016-07-23T08:55:12.678Z,1012.49
2016-07-23T08:56:12.664Z,1012.51
2016-07-23T08:57:12.647Z,1012.49
2016-07-23T08:58:12.630Z,1012.5
2016-07-23T08:59:12.619Z,1012.51
2016-07-23T09:00:12.609Z,1012.53
2016-07-23T09:01:12.590Z,1012.59
2016-07-23T09:02:12.576Z,1012.62
2016-07-23T09:03:12.563Z,1012.66
2016-07-23T09:04:12.548Z,1012.6
2016-07-23T09:05:12.536Z,1012.62
2016-07-23T09:06:12.518Z,1012.62
2016-07-23T09:07:12.508Z,1012.63
2016-07-23T09:08:12.492Z,1012.63
2016-07-23T09:09:12.481Z,1012.63
2016-07-23T09:10:12.464Z,1012.62
2016-07-23T09:11:12.450Z,1012.62
2016-07-23T09:12:12.434Z,1012.58
2016-07-23T09:13:12.424Z,1012.63
2016-07-23T09:14:12.407Z,1012.62
2016-07-23T09:15:12.393Z,1012.63
2016-07-23T09:16:12.378Z,1012.6
2016-07-23T09:17:12.359Z,1012.64
2016-07-23T09:18:12.353Z,1012.62
2016-07-23T09:19:12.334Z,1012.64
2016-07-23T09:20:12.325Z,1012.61
2016-07-23T09:21:12.307Z,1012.67
2016-07-23T09:22:12.293Z,1012.62
2016-07-23T09:23:12.277Z,1012.63
2016-07-23T09:24:12.265Z,1012.62
2016-07-23T09:25:12.253Z,1012.61
2016-07-23T09:26:12.236Z,1012.59
2016-07-23T09:27:12.222Z,1012.62
2016-07-23T09:28:12.208Z,1012.6
2016-07-23T09:29:12.197Z,1012.68
2016-07-23T09:30:12.179Z,1012.63
2016-07-23T09:31:12.169Z,1012.66
2016-07-23T09:32:12.151Z,1012.68
2016-07-23T09:33:12.137Z,1012.61
2016-07-23T09:34:12.122Z,1012.62
2016-07-23T09:35:12.110Z,1012.65
2016-07-23T09:36:12.098Z,1012.66
2016-07-23T09:37:12.081Z,1012.68
2016-07-23T09:38:12.067Z,1012.66
2016-07-23T09:39:12.052Z,1012.65
2016-07-23T09:40:12.039Z,1012.61
2016-07-23T09:41:12.024Z,1012.66
2016-07-23T09:42:12.010Z,1012.66
2016-07-23T09:43:11.998Z,1012.71
2016-07-23T09:44:11.982Z,1012.68
2016-07-23T09:45:11.967Z,1012.69
2016-07-23T09:46:11.953Z,1012.72
2016-07-23T09:47:11.944Z,1012.73
2016-07-23T09:48:11.928Z,1012.73
2016-07-23T09:49:11.910Z,1012.69
2016-07-23T09:50:11.894Z,1012.72
2016-07-23T09:51:11.887Z,1012.7
2016-07-23T09:52:11.868Z,1012.7
2016-07-23T09:53:11.855Z,1012.68
2016-07-23T09:54:11.840Z,1012.69
2016-07-23T09:55:11.824Z,1012.72
2016-07-23T09:56:11.812Z,1012.73
2016-07-23T09:57:11.798Z,1012.72
2016-07-23T09:58:11.785Z,1012.69
2016-07-23T09:59:11.770Z,1012.71
2016-07-23T10:00:11.757Z,1012.71
2016-07-23T10:01:11.741Z,1012.66
2016-07-23T10:02:11.728Z,1012.67
2016-07-23T10:03:11.717Z,1012.7
2016-07-23T10:04:11.700Z,1012.69
2016-07-23T10:05:11.684Z,1012.69
2016-07-23T10:06:11.675Z,1012.75
2016-07-23T10:07:11.654Z,1012.73
2016-07-23T10:08:11.643Z,1012.73
2016-07-23T10:09:11.627Z,1012.75
2016-07-23T10:10:11.616Z,1012.76
2016-07-23T10:11:11.600Z,1012.75
2016-07-23T10:12:11.589Z,1012.75
2016-07-23T10:13:11.573Z,1012.72
2016-07-23T10:14:11.561Z,1012.74
2016-07-23T10:15:11.546Z,1012.73
2016-07-23T10:16:11.536Z,1012.75
2016-07-23T10:17:11.526Z,1012.75
2016-07-23T10:18:11.500Z,1012.74
2016-07-23T10:19:11.488Z,1012.72
2016-07-23T10:20:11.476Z,1012.76
2016-07-23T10:21:11.465Z,1012.77
2016-07-23T10:22:11.449Z,1012.76
2016-07-23T10:23:11.446Z,1012.76
2016-07-23T10:24:11.425Z,1012.76
2016-07-23T10:25:11.405Z,1012.78
2016-07-23T10:26:11.391Z,1012.74
2016-07-23T10:27:11.428Z,1012.74
2016-07-23T10:28:11.365Z,1012.73
2016-07-23T10:29:11.350Z,1012.74
2016-07-23T10:30:11.335Z,1012.77
2016-07-23T10:31:11.323Z,1012.76
2016-07-23T10:32:11.305Z,1012.83
2016-07-23T10:33:11.293Z,1012.79
2016-07-23T10:34:11.279Z,1012.82
2016-07-23T10:35:11.265Z,1012.81
2016-07-23T10:36:11.251Z,1012.8
2016-07-23T10:37:11.241Z,1012.8
2016-07-23T10:38:11.229Z,1012.81
2016-07-23T10:39:11.210Z,1012.83
2016-07-23T10:40:11.203Z,1012.81
2016-07-23T10:41:11.181Z,1012.8
2016-07-23T10:42:11.166Z,1012.78
2016-07-23T10:43:11.156Z,1012.79
2016-07-23T10:44:11.141Z,1012.79
2016-07-23T10:45:11.128Z,1012.77
2016-07-23T10:46:11.111Z,1012.78
2016-07-23T10:47:11.100Z,1012.8
2016-07-23T10:48:11.087Z,1012.81
2016-07-23T10:49:11.074Z,1012.81
2016-07-23T10:50:11.061Z,1012.76
2016-07-23T10:51:11.044Z,1012.77
2016-07-23T10:52:11.029Z,1012.8
2016-07-23T10:53:11.014Z,1012.81
2016-07-23T10:54:11.001Z,1012.81
2016-07-23T10:55:10.988Z,1012.81
2016-07-23T10:56:10.969Z,1012.84
2016-07-23T10:57:10.958Z,1012.85
2016-07-23T10:58:10.942Z,1012.87
2016-07-23T10:59:10.931Z,1012.91
2016-07-23T11:00:10.916Z,1012.92
2016-07-23T11:01:10.908Z,1012.94
2016-07-23T11:02:10.892Z,1012.95
2016-07-23T11:03:10.870Z,1012.96
2016-07-23T11:04:10.859Z,1012.97
2016-07-23T11:05:10.844Z,1012.97
2016-07-23T11:06:10.831Z,1013.01
2016-07-23T11:07:10.813Z,1012.96
2016-07-23T11:08:10.805Z,1012.95
2016-07-23T11:09:10.788Z,1012.94
2016-07-23T11:10:10.776Z,1012.95
2016-07-23T11:11:10.766Z,1012.97
2016-07-23T11:12:10.749Z,1012.91
2016-07-23T11:13:10.734Z,1012.93
2016-07-23T11:14:10.719Z,1012.97
2016-07-23T11:15:10.705Z,1012.96
2016-07-23T11:16:10.691Z,1012.94
2016-07-23T11:17:10.676Z,1012.96
2016-07-23T11:18:10.662Z,1012.94
2016-07-23T11:19:10.648Z,1012.97
2016-07-23T11:20:10.634Z,1012.89
2016-07-23T11:21:10.629Z,1012.92
2016-07-23T11:22:10.603Z,1012.95
2016-07-23T11:23:10.590Z,1012.94
2016-07-23T11:24:10.576Z,1012.96
2016-07-23T11:25:10.568Z,1012.93
2016-07-23T11:26:10.546Z,1012.94
2016-07-23T11:27:10.583Z,1012.93
2016-07-23T11:28:10.519Z,1012.93
2016-07-23T11:29:10.503Z,1012.92
2016-07-23T11:30:10.491Z,1012.91
2016-07-23T11:31:10.474Z,1012.91
2016-07-23T11:32:10.464Z,1012.95
2016-07-23T11:33:10.448Z,1012.93
2016-07-23T11:34:10.431Z,1012.9
2016-07-23T11:35:10.420Z,1012.91
2016-07-23T11:36:10.403Z,1012.92
2016-07-23T11:37:10.387Z,1012.91
2016-07-23T11:38:10.384Z,1012.9
2016-07-23T11:39:10.359Z,1012.91
2016-07-23T11:40:10.344Z,1012.94
2016-07-23T11:41:10.331Z,1012.9
2016-07-23T11:42:10.321Z,1012.92
2016-07-23T11:43:10.304Z,1012.94
2016-07-23T11:44:10.288Z,1012.95
2016-07-23T11:45:10.272Z,1012.94
2016-07-23T11:46:10.260Z,1013
2016-07-23T11:47:10.244Z,1012.97
2016-07-23T11:48:10.228Z,1012.97
2016-07-23T11:49:10.213Z,1012.95
2016-07-23T11:50:10.201Z,1012.99
2016-07-23T11:51:10.186Z,1012.94
2016-07-23T11:52:10.176Z,1012.93
2016-07-23T11:53:10.156Z,1012.94
2016-07-23T11:54:10.142Z,1012.89
2016-07-23T11:55:10.131Z,1012.92
2016-07-23T11:56:10.111Z,1012.94
2016-07-23T11:57:10.099Z,1012.93
2016-07-23T11:58:10.086Z,1012.95
2016-07-23T11:59:10.070Z,1012.93
2016-07-23T12:00:10.054Z,1012.91
2016-07-23T12:01:10.040Z,1012.91
2016-07-23T12:02:10.024Z,1012.92
2016-07-23T12:03:10.012Z,1012.91
2016-07-23T12:04:09.995Z,1012.91
2016-07-23T12:05:09.982Z,1012.93
2016-07-23T12:06:09.973Z,1012.92
2016-07-23T12:07:09.953Z,1012.93
2016-07-23T12:08:09.936Z,1012.94